sensor_id;sensor_type;location;lat;lon;timestamp;pressure;altitude;pressure_sealevel;temperature;humidity
64683;BME280;51107;47.652;19.016;2022-11-15T00:02:38;100445.16;;;2.57;100.00
64683;BME280;51107;47.652;19.016;2022-11-15T00:05:25;100442.72;;;2.69;100.00
64683;BME280;51107;47.652;19.016;2022-11-15T00:08:12;100441.31;;;2.64;100.00
64683;BME280;51107;47.652;19.016;2022-11-15T00:11:01;100439.66;;;2.79;100.00
64683;BME280;51107;47.652;19.016;2022-11-15T00:13:47;100437.81;;;2.97;100.00
64683;BME280;51107;47.652;19.016;2022-11-15T00:16:34;100439.91;;;2.90;100.00
64683;BME280;51107;47.652;19.016;2022-11-15T00:19:21;100434.44;;;2.80;100.00
64683;BME280;51107;47.652;19.016;2022-11-15T00:22:08;100421.16;;;2.88;100.00
64683;BME280;51107;47.652;19.016;2022-11-15T00:24:55;100433.25;;;2.86;100.00
64683;BME280;51107;47.652;19.016;2022-11-15T00:27:42;100426.41;;;2.70;100.00
64683;BME280;51107;47.652;19.016;2022-11-15T00:30:29;100425.62;;;2.68;100.00
64683;BME280;51107;47.652;19.016;2022-11-15T00:33:16;100430.13;;;2.65;100.00
64683;BME280;51107;47.652;19.016;2022-11-15T00:36:05;100426.31;;;2.56;100.00
64683;BME280;51107;47.652;19.016;2022-11-15T00:38:52;100424.25;;;2.47;100.00
64683;BME280;51107;47.652;19.016;2022-11-15T00:41:38;100425.12;;;2.30;100.00
64683;BME280;51107;47.652;19.016;2022-11-15T00:44:25;100430.44;;;2.27;100.00
64683;BME280;51107;47.652;19.016;2022-11-15T00:47:12;100424.56;;;2.25;100.00
64683;BME280;51107;47.652;19.016;2022-11-15T00:49:58;100422.97;;;2.22;100.00
64683;BME280;51107;47.652;19.016;2022-11-15T00:52:45;100407.72;;;2.35;100.00
64683;BME280;51107;47.652;19.016;2022-11-15T00:55:32;100408.62;;;2.50;100.00
64683;BME280;51107;47.652;19.016;2022-11-15T00:58:19;100397.69;;;2.46;100.00
64683;BME280;51107;47.652;19.016;2022-11-15T01:01:11;100401.41;;;2.41;100.00
64683;BME280;51107;47.652;19.016;2022-11-15T01:03:59;100400.75;;;2.53;100.00
64683;BME280;51107;47.652;19.016;2022-11-15T01:06:47;100392.03;;;2.55;100.00
64683;BME280;51107;47.652;19.016;2022-11-15T01:09:35;100392.13;;;2.38;100.00
64683;BME280;51107;47.652;19.016;2022-11-15T01:12:22;100388.78;;;2.52;100.00
64683;BME280;51107;47.652;19.016;2022-11-15T01:15:08;100395.03;;;2.64;100.00
64683;BME280;51107;47.652;19.016;2022-11-15T01:17:55;100386.72;;;2.75;100.00
64683;BME280;51107;47.652;19.016;2022-11-15T01:20:42;100386.91;;;2.71;100.00
64683;BME280;51107;47.652;19.016;2022-11-15T01:23:29;100396.03;;;2.61;100.00
64683;BME280;51107;47.652;19.016;2022-11-15T01:26:16;100390.28;;;2.72;100.00
64683;BME280;51107;47.652;19.016;2022-11-15T01:29:03;100386.84;;;2.87;100.00
64683;BME280;51107;47.652;19.016;2022-11-15T01:31:52;100377.72;;;2.98;100.00
64683;BME280;51107;47.652;19.016;2022-11-15T01:34:39;100387.03;;;3.15;100.00
64683;BME280;51107;47.652;19.016;2022-11-15T01:37:26;100387.34;;;3.25;100.00
64683;BME280;51107;47.652;19.016;2022-11-15T01:40:14;100374.75;;;3.34;100.00
64683;BME280;51107;47.652;19.016;2022-11-15T01:43:22;100382.78;;;3.44;100.00
64683;BME280;51107;47.652;19.016;2022-11-15T01:49:20;100366.06;;;3.51;100.00
64683;BME280;51107;47.652;19.016;2022-11-15T01:52:11;100380.97;;;3.61;100.00
64683;BME280;51107;47.652;19.016;2022-11-15T01:55:07;100377.19;;;3.66;100.00
64683;BME280;51107;47.652;19.016;2022-11-15T01:57:59;100368.34;;;3.70;100.00
64683;BME280;51107;47.652;19.016;2022-11-15T02:00:46;100373.78;;;3.66;100.00
64683;BME280;51107;47.652;19.016;2022-11-15T02:03:42;100367.06;;;3.63;100.00
64683;BME280;51107;47.652;19.016;2022-11-15T02:06:30;100371.03;;;3.54;100.00
64683;BME280;51107;47.652;19.016;2022-11-15T02:09:18;100360.53;;;3.43;100.00
64683;BME280;51107;47.652;19.016;2022-11-15T02:12:07;100362.75;;;3.49;100.00
64683;BME280;51107;47.652;19.016;2022-11-15T02:14:56;100370.19;;;3.54;100.00
64683;BME280;51107;47.652;19.016;2022-11-15T02:18:27;100357.69;;;3.48;100.00
64683;BME280;51107;47.652;19.016;2022-11-15T02:21:28;100362.56;;;3.52;100.00
64683;BME280;51107;47.652;19.016;2022-11-15T02:24:49;100354.19;;;3.49;100.00
64683;BME280;51107;47.652;19.016;2022-11-15T02:27:53;100349.56;;;3.54;100.00
64683;BME280;51107;47.652;19.016;2022-11-15T02:30:59;100353.56;;;3.60;100.00
64683;BME280;51107;47.652;19.016;2022-11-15T02:37:17;100337.25;;;3.59;100.00
64683;BME280;51107;47.652;19.016;2022-11-15T02:40:37;100345.34;;;3.67;100.00
64683;BME280;51107;47.652;19.016;2022-11-15T02:46:52;100336.06;;;3.79;100.00
64683;BME280;51107;47.652;19.016;2022-11-15T02:50:01;100325.84;;;3.78;100.00
64683;BME280;51107;47.652;19.016;2022-11-15T02:52:49;100333.94;;;3.86;100.00
64683;BME280;51107;47.652;19.016;2022-11-15T02:55:41;100333.75;;;3.89;100.00
64683;BME280;51107;47.652;19.016;2022-11-15T02:58:52;100328.22;;;3.95;100.00
64683;BME280;51107;47.652;19.016;2022-11-15T03:05:23;100331.69;;;4.08;100.00
64683;BME280;51107;47.652;19.016;2022-11-15T03:08:17;100328.41;;;4.06;100.00
64683;BME280;51107;47.652;19.016;2022-11-15T03:11:13;100332.66;;;3.93;100.00
64683;BME280;51107;47.652;19.016;2022-11-15T03:14:25;100326.56;;;3.94;100.00
64683;BME280;51107;47.652;19.016;2022-11-15T03:17:49;100325.63;;;4.10;100.00
64683;BME280;51107;47.652;19.016;2022-11-15T03:20:39;100324.34;;;4.02;100.00
64683;BME280;51107;47.652;19.016;2022-11-15T03:23:29;100322.66;;;4.16;100.00
64683;BME280;51107;47.652;19.016;2022-11-15T03:26:18;100320.38;;;4.11;100.00
64683;BME280;51107;47.652;19.016;2022-11-15T03:29:16;100309.59;;;4.04;100.00
64683;BME280;51107;47.652;19.016;2022-11-15T03:32:11;100315.31;;;4.10;100.00
64683;BME280;51107;47.652;19.016;2022-11-15T03:35:08;100317.03;;;4.23;100.00
64683;BME280;51107;47.652;19.016;2022-11-15T03:40:49;100310.44;;;4.32;100.00
64683;BME280;51107;47.652;19.016;2022-11-15T03:43:46;100318.44;;;4.15;100.00
64683;BME280;51107;47.652;19.016;2022-11-15T03:47:02;100307.94;;;4.03;100.00
64683;BME280;51107;47.652;19.016;2022-11-15T03:49:53;100307.38;;;4.13;100.00
64683;BME280;51107;47.652;19.016;2022-11-15T03:52:45;100301.41;;;4.12;100.00
64683;BME280;51107;47.652;19.016;2022-11-15T03:55:32;100303.12;;;4.26;100.00
64683;BME280;51107;47.652;19.016;2022-11-15T03:58:19;100290.78;;;4.17;100.00
64683;BME280;51107;47.652;19.016;2022-11-15T04:01:06;100292.59;;;4.29;100.00
64683;BME280;51107;47.652;19.016;2022-11-15T04:03:53;100292.59;;;4.29;100.00
64683;BME280;51107;47.652;19.016;2022-11-15T04:06:40;100289.31;;;4.27;100.00
64683;BME280;51107;47.652;19.016;2022-11-15T04:09:35;100282.94;;;4.33;100.00
64683;BME280;51107;47.652;19.016;2022-11-15T04:12:43;100280.84;;;4.38;100.00
64683;BME280;51107;47.652;19.016;2022-11-15T04:15:32;100281.91;;;4.35;100.00
64683;BME280;51107;47.652;19.016;2022-11-15T04:18:19;100276.09;;;4.32;100.00
64683;BME280;51107;47.652;19.016;2022-11-15T04:21:07;100279.41;;;4.34;100.00
64683;BME280;51107;47.652;19.016;2022-11-15T04:24:13;100266.03;;;4.41;100.00
64683;BME280;51107;47.652;19.016;2022-11-15T04:27:00;100276.03;;;4.46;100.00
64683;BME280;51107;47.652;19.016;2022-11-15T04:29:49;100261.09;;;4.51;100.00
64683;BME280;51107;47.652;19.016;2022-11-15T04:32:36;100257.69;;;4.51;100.00
64683;BME280;51107;47.652;19.016;2022-11-15T04:35:22;100270.38;;;4.41;100.00
64683;BME280;51107;47.652;19.016;2022-11-15T04:38:10;100259.06;;;4.29;100.00
64683;BME280;51107;47.652;19.016;2022-11-15T04:40:57;100251.78;;;4.36;100.00
64683;BME280;51107;47.652;19.016;2022-11-15T04:43:44;100240.97;;;4.44;100.00
64683;BME280;51107;47.652;19.016;2022-11-15T04:46:30;100260.66;;;4.17;100.00
64683;BME280;51107;47.652;19.016;2022-11-15T04:49:17;100269.31;;;3.89;100.00
64683;BME280;51107;47.652;19.016;2022-11-15T04:52:03;100262.66;;;3.99;100.00
64683;BME280;51107;47.652;19.016;2022-11-15T04:54:50;100267.44;;;4.05;100.00
64683;BME280;51107;47.652;19.016;2022-11-15T04:57:37;100261.72;;;4.15;100.00
64683;BME280;51107;47.652;19.016;2022-11-15T05:00:26;100271.63;;;4.21;100.00
64683;BME280;51107;47.652;19.016;2022-11-15T05:03:13;100269.00;;;4.35;100.00
64683;BME280;51107;47.652;19.016;2022-11-15T05:06:19;100264.09;;;4.45;100.00
64683;BME280;51107;47.652;19.016;2022-11-15T05:09:05;100261.94;;;4.52;100.00
64683;BME280;51107;47.652;19.016;2022-11-15T05:11:52;100257.72;;;4.64;100.00
64683;BME280;51107;47.652;19.016;2022-11-15T05:14:38;100254.53;;;4.73;100.00
64683;BME280;51107;47.652;19.016;2022-11-15T05:17:35;100254.00;;;4.81;100.00
64683;BME280;51107;47.652;19.016;2022-11-15T05:20:22;100247.72;;;4.85;100.00
64683;BME280;51107;47.652;19.016;2022-11-15T05:23:09;100251.69;;;4.90;100.00
64683;BME280;51107;47.652;19.016;2022-11-15T05:26:02;100239.47;;;4.92;100.00
64683;BME280;51107;47.652;19.016;2022-11-15T05:28:58;100249.06;;;4.78;100.00
64683;BME280;51107;47.652;19.016;2022-11-15T05:31:45;100252.00;;;4.46;100.00
64683;BME280;51107;47.652;19.016;2022-11-15T05:34:32;100258.28;;;4.41;100.00
64683;BME280;51107;47.652;19.016;2022-11-15T05:37:19;100239.31;;;4.42;100.00
64683;BME280;51107;47.652;19.016;2022-11-15T05:40:18;100243.87;;;4.52;100.00
64683;BME280;51107;47.652;19.016;2022-11-15T05:43:05;100238.31;;;4.58;100.00
64683;BME280;51107;47.652;19.016;2022-11-15T05:45:52;100244.59;;;4.67;100.00
64683;BME280;51107;47.652;19.016;2022-11-15T05:48:41;100248.47;;;4.74;100.00
64683;BME280;51107;47.652;19.016;2022-11-15T05:51:30;100235.03;;;4.82;100.00
64683;BME280;51107;47.652;19.016;2022-11-15T05:54:17;100239.06;;;4.86;100.00
64683;BME280;51107;47.652;19.016;2022-11-15T05:57:05;100231.31;;;4.86;100.00
64683;BME280;51107;47.652;19.016;2022-11-15T05:59:53;100242.16;;;4.91;100.00
64683;BME280;51107;47.652;19.016;2022-11-15T06:02:41;100232.69;;;5.04;100.00
64683;BME280;51107;47.652;19.016;2022-11-15T06:05:28;100235.03;;;5.07;100.00
64683;BME280;51107;47.652;19.016;2022-11-15T06:08:15;100239.56;;;5.04;100.00
64683;BME280;51107;47.652;19.016;2022-11-15T06:11:06;100244.63;;;5.05;100.00
64683;BME280;51107;47.652;19.016;2022-11-15T06:13:52;100241.88;;;5.08;100.00
64683;BME280;51107;47.652;19.016;2022-11-15T06:16:39;100240.00;;;5.10;100.00
64683;BME280;51107;47.652;19.016;2022-11-15T06:19:25;100246.72;;;5.13;100.00
64683;BME280;51107;47.652;19.016;2022-11-15T06:22:12;100246.31;;;5.19;100.00
64683;BME280;51107;47.652;19.016;2022-11-15T06:24:59;100234.09;;;5.21;100.00
64683;BME280;51107;47.652;19.016;2022-11-15T06:27:52;100244.31;;;5.23;100.00
64683;BME280;51107;47.652;19.016;2022-11-15T06:30:38;100248.25;;;5.28;100.00
64683;BME280;51107;47.652;19.016;2022-11-15T06:33:25;100250.31;;;5.36;100.00
64683;BME280;51107;47.652;19.016;2022-11-15T06:36:12;100257.16;;;5.37;100.00
64683;BME280;51107;47.652;19.016;2022-11-15T06:39:04;100243.16;;;5.40;100.00
64683;BME280;51107;47.652;19.016;2022-11-15T06:41:51;100230.87;;;5.43;100.00
64683;BME280;51107;47.652;19.016;2022-11-15T06:44:37;100242.75;;;5.46;100.00
64683;BME280;51107;47.652;19.016;2022-11-15T06:47:24;100234.91;;;5.48;100.00
64683;BME280;51107;47.652;19.016;2022-11-15T06:50:12;100242.12;;;5.42;100.00
64683;BME280;51107;47.652;19.016;2022-11-15T06:53:03;100250.53;;;5.33;100.00
64683;BME280;51107;47.652;19.016;2022-11-15T06:55:50;100243.19;;;5.27;100.00
64683;BME280;51107;47.652;19.016;2022-11-15T06:58:41;100251.84;;;5.26;100.00
64683;BME280;51107;47.652;19.016;2022-11-15T07:01:27;100254.16;;;5.31;100.00
64683;BME280;51107;47.652;19.016;2022-11-15T07:04:14;100233.37;;;5.32;100.00
64683;BME280;51107;47.652;19.016;2022-11-15T07:07:00;100228.50;;;5.40;100.00
64683;BME280;51107;47.652;19.016;2022-11-15T07:09:47;100224.56;;;5.48;100.00
64683;BME280;51107;47.652;19.016;2022-11-15T07:12:36;100233.03;;;5.50;100.00
64683;BME280;51107;47.652;19.016;2022-11-15T07:15:25;100242.44;;;5.51;100.00
64683;BME280;51107;47.652;19.016;2022-11-15T07:18:12;100240.13;;;5.59;100.00
64683;BME280;51107;47.652;19.016;2022-11-15T07:21:03;100234.56;;;5.52;100.00
64683;BME280;51107;47.652;19.016;2022-11-15T07:23:50;100230.53;;;5.61;100.00
64683;BME280;51107;47.652;19.016;2022-11-15T07:26:37;100230.09;;;5.67;100.00
64683;BME280;51107;47.652;19.016;2022-11-15T07:29:24;100226.34;;;5.71;100.00
64683;BME280;51107;47.652;19.016;2022-11-15T07:32:10;100231.84;;;5.67;100.00
64683;BME280;51107;47.652;19.016;2022-11-15T07:34:57;100224.09;;;5.67;100.00
64683;BME280;51107;47.652;19.016;2022-11-15T07:37:44;100231.34;;;5.61;100.00
64683;BME280;51107;47.652;19.016;2022-11-15T07:40:31;100241.91;;;5.58;100.00
64683;BME280;51107;47.652;19.016;2022-11-15T07:43:18;100239.22;;;5.60;100.00
64683;BME280;51107;47.652;19.016;2022-11-15T07:46:06;100219.56;;;5.70;100.00
64683;BME280;51107;47.652;19.016;2022-11-15T07:48:56;100215.47;;;5.79;100.00
64683;BME280;51107;47.652;19.016;2022-11-15T07:51:43;100208.44;;;5.81;100.00
64683;BME280;51107;47.652;19.016;2022-11-15T07:54:30;100214.22;;;5.85;100.00
64683;BME280;51107;47.652;19.016;2022-11-15T07:57:17;100207.91;;;5.89;100.00
64683;BME280;51107;47.652;19.016;2022-11-15T08:00:05;100206.75;;;5.93;100.00
64683;BME280;51107;47.652;19.016;2022-11-15T08:02:53;100207.56;;;5.93;100.00
64683;BME280;51107;47.652;19.016;2022-11-15T08:05:50;100212.63;;;5.95;100.00
64683;BME280;51107;47.652;19.016;2022-11-15T08:08:37;100209.94;;;5.97;100.00
64683;BME280;51107;47.652;19.016;2022-11-15T08:11:24;100206.44;;;5.98;100.00
64683;BME280;51107;47.652;19.016;2022-11-15T08:14:11;100196.16;;;5.96;100.00
64683;BME280;51107;47.652;19.016;2022-11-15T08:16:57;100202.69;;;6.02;100.00
64683;BME280;51107;47.652;19.016;2022-11-15T08:19:47;100197.91;;;6.08;100.00
64683;BME280;51107;47.652;19.016;2022-11-15T08:22:35;100191.91;;;6.08;100.00
64683;BME280;51107;47.652;19.016;2022-11-15T08:25:23;100198.62;;;6.10;100.00
64683;BME280;51107;47.652;19.016;2022-11-15T08:28:12;100191.34;;;6.16;100.00
64683;BME280;51107;47.652;19.016;2022-11-15T08:30:59;100192.84;;;6.07;100.00
64683;BME280;51107;47.652;19.016;2022-11-15T08:33:45;100177.59;;;6.15;100.00
64683;BME280;51107;47.652;19.016;2022-11-15T08:36:31;100183.97;;;6.22;100.00
64683;BME280;51107;47.652;19.016;2022-11-15T08:39:30;100180.22;;;6.26;100.00
64683;BME280;51107;47.652;19.016;2022-11-15T08:42:17;100177.50;;;6.28;100.00
64683;BME280;51107;47.652;19.016;2022-11-15T08:45:06;100179.66;;;6.34;100.00
64683;BME280;51107;47.652;19.016;2022-11-15T08:47:53;100174.00;;;6.29;100.00
64683;BME280;51107;47.652;19.016;2022-11-15T08:50:40;100155.44;;;6.35;100.00
64683;BME280;51107;47.652;19.016;2022-11-15T08:53:26;100157.31;;;6.33;100.00
64683;BME280;51107;47.652;19.016;2022-11-15T08:56:14;100156.97;;;6.38;100.00
64683;BME280;51107;47.652;19.016;2022-11-15T08:59:01;100150.97;;;6.49;100.00
64683;BME280;51107;47.652;19.016;2022-11-15T09:01:48;100159.47;;;6.51;100.00
64683;BME280;51107;47.652;19.016;2022-11-15T09:04:35;100147.72;;;6.58;100.00
64683;BME280;51107;47.652;19.016;2022-11-15T09:07:22;100147.34;;;6.62;100.00
64683;BME280;51107;47.652;19.016;2022-11-15T09:10:09;100142.78;;;6.66;100.00
64683;BME280;51107;47.652;19.016;2022-11-15T09:12:59;100139.75;;;6.72;100.00
64683;BME280;51107;47.652;19.016;2022-11-15T09:15:45;100147.50;;;6.72;100.00
64683;BME280;51107;47.652;19.016;2022-11-15T09:18:32;100160.53;;;6.71;100.00
64683;BME280;51107;47.652;19.016;2022-11-15T09:21:20;100152.87;;;6.58;100.00
64683;BME280;51107;47.652;19.016;2022-11-15T09:24:06;100153.38;;;6.52;100.00
64683;BME280;51107;47.652;19.016;2022-11-15T09:26:53;100147.22;;;6.53;100.00
64683;BME280;51107;47.652;19.016;2022-11-15T09:29:40;100147.50;;;6.72;100.00
64683;BME280;51107;47.652;19.016;2022-11-15T09:32:29;100139.63;;;6.74;100.00
64683;BME280;51107;47.652;19.016;2022-11-15T09:35:25;100135.37;;;6.84;100.00
64683;BME280;51107;47.652;19.016;2022-11-15T09:38:11;100123.03;;;6.88;100.00
64683;BME280;51107;47.652;19.016;2022-11-15T09:49:24;100118.06;;;6.96;100.00
64683;BME280;51107;47.652;19.016;2022-11-15T09:51:54;100106.53;;;7.00;100.00
64683;BME280;51107;47.652;19.016;2022-11-15T09:57:37;100097.25;;;6.97;100.00
64683;BME280;51107;47.652;19.016;2022-11-15T10:03:14;100107.69;;;7.07;100.00
64683;BME280;51107;47.652;19.016;2022-11-15T10:05:48;100108.88;;;7.14;100.00
64683;BME280;51107;47.652;19.016;2022-11-15T10:09:11;100101.81;;;7.17;100.00
64683;BME280;51107;47.652;19.016;2022-11-15T10:11:32;100103.69;;;7.14;100.00
64683;BME280;51107;47.652;19.016;2022-11-15T10:14:13;100100.97;;;7.16;100.00
64683;BME280;51107;47.652;19.016;2022-11-15T10:20:29;100087.19;;;7.16;100.00
64683;BME280;51107;47.652;19.016;2022-11-15T10:23:04;100082.38;;;7.11;100.00
64683;BME280;51107;47.652;19.016;2022-11-15T10:25:34;100078.28;;;7.08;100.00
64683;BME280;51107;47.652;19.016;2022-11-15T10:30:49;100070.38;;;7.10;100.00
64683;BME280;51107;47.652;19.016;2022-11-15T10:41:21;100045.78;;;7.04;100.00
64683;BME280;51107;47.652;19.016;2022-11-15T10:44:29;100041.28;;;7.06;100.00
64683;BME280;51107;47.652;19.016;2022-11-15T10:49:28;100040.59;;;7.04;100.00
64683;BME280;51107;47.652;19.016;2022-11-15T10:54:41;100033.63;;;7.05;100.00
64683;BME280;51107;47.652;19.016;2022-11-15T10:57:15;100024.94;;;7.06;100.00
64683;BME280;51107;47.652;19.016;2022-11-15T10:59:51;100029.72;;;7.10;100.00
64683;BME280;51107;47.652;19.016;2022-11-15T11:02:36;100018.78;;;7.18;100.00
64683;BME280;51107;47.652;19.016;2022-11-15T11:05:24;100022.38;;;7.27;100.00
64683;BME280;51107;47.652;19.016;2022-11-15T11:07:59;100020.63;;;7.27;100.00
64683;BME280;51107;47.652;19.016;2022-11-15T11:10:28;100009.44;;;7.27;100.00
64683;BME280;51107;47.652;19.016;2022-11-15T11:13:25;100009.06;;;7.31;100.00
64683;BME280;51107;47.652;19.016;2022-11-15T11:21:14;100008.62;;;7.26;100.00
64683;BME280;51107;47.652;19.016;2022-11-15T11:23:52;100008.38;;;7.29;100.00
64683;BME280;51107;47.652;19.016;2022-11-15T11:43:03;99992.44;;;7.34;100.00
64683;BME280;51107;47.652;19.016;2022-11-15T11:46:01;99987.75;;;7.28;100.00
64683;BME280;51107;47.652;19.016;2022-11-15T11:48:40;99988.56;;;7.28;100.00
64683;BME280;51107;47.652;19.016;2022-11-15T11:51:23;99977.47;;;7.38;100.00
64683;BME280;51107;47.652;19.016;2022-11-15T11:54:00;99969.63;;;7.28;100.00
64683;BME280;51107;47.652;19.016;2022-11-15T11:56:33;99963.56;;;7.39;100.00
64683;BME280;51107;47.652;19.016;2022-11-15T11:59:13;99969.56;;;7.39;100.00
64683;BME280;51107;47.652;19.016;2022-11-15T12:01:44;99968.31;;;7.34;100.00
64683;BME280;51107;47.652;19.016;2022-11-15T12:04:35;99951.69;;;7.36;100.00
64683;BME280;51107;47.652;19.016;2022-11-15T12:07:19;99934.59;;;7.34;100.00
64683;BME280;51107;47.652;19.016;2022-11-15T12:15:19;99934.75;;;7.32;100.00
64683;BME280;51107;47.652;19.016;2022-11-15T12:17:49;99927.56;;;7.24;100.00
64683;BME280;51107;47.652;19.016;2022-11-15T12:20:23;99928.16;;;7.28;100.00
64683;BME280;51107;47.652;19.016;2022-11-15T12:23:05;99922.59;;;7.32;100.00
64683;BME280;51107;47.652;19.016;2022-11-15T12:25:47;99912.34;;;7.31;100.00
64683;BME280;51107;47.652;19.016;2022-11-15T12:28:54;99920.66;;;7.25;100.00
64683;BME280;51107;47.652;19.016;2022-11-15T12:31:44;99918.53;;;7.19;100.00
64683;BME280;51107;47.652;19.016;2022-11-15T12:36:50;99916.97;;;7.27;100.00
64683;BME280;51107;47.652;19.016;2022-11-15T12:39:19;99914.41;;;7.27;100.00
64683;BME280;51107;47.652;19.016;2022-11-15T12:47:03;99903.31;;;7.25;100.00
64683;BME280;51107;47.652;19.016;2022-11-15T12:52:06;99886.63;;;7.39;100.00
64683;BME280;51107;47.652;19.016;2022-11-15T12:59:56;99895.81;;;7.22;100.00
64683;BME280;51107;47.652;19.016;2022-11-15T13:17:45;99868.06;;;7.13;100.00
64683;BME280;51107;47.652;19.016;2022-11-15T13:33:17;99868.56;;;7.07;100.00
64683;BME280;51107;47.652;19.016;2022-11-15T13:35:50;99862.81;;;7.03;100.00
64683;BME280;51107;47.652;19.016;2022-11-15T13:38:36;99863.75;;;7.02;100.00
64683;BME280;51107;47.652;19.016;2022-11-15T13:41:25;99865.66;;;7.00;100.00
64683;BME280;51107;47.652;19.016;2022-11-15T13:43:55;99861.59;;;7.07;100.00
64683;BME280;51107;47.652;19.016;2022-11-15T13:46:29;99866.66;;;7.09;100.00
64683;BME280;51107;47.652;19.016;2022-11-15T13:49:00;99864.31;;;7.06;100.00
64683;BME280;51107;47.652;19.016;2022-11-15T13:56:45;99848.53;;;7.09;100.00
64683;BME280;51107;47.652;19.016;2022-11-15T13:59:26;99850.66;;;7.04;100.00
64683;BME280;51107;47.652;19.016;2022-11-15T14:02:12;99848.78;;;7.06;100.00
64683;BME280;51107;47.652;19.016;2022-11-15T14:04:50;99842.22;;;7.02;100.00
64683;BME280;51107;47.652;19.016;2022-11-15T14:07:21;99833.63;;;7.01;100.00
64683;BME280;51107;47.652;19.016;2022-11-15T14:09:51;99826.53;;;7.03;100.00
64683;BME280;51107;47.652;19.016;2022-11-15T14:12:35;99821.09;;;7.06;100.00
64683;BME280;51107;47.652;19.016;2022-11-15T14:15:38;99824.75;;;7.04;100.00
64683;BME280;51107;47.652;19.016;2022-11-15T14:18:37;99820.41;;;7.04;100.00
64683;BME280;51107;47.652;19.016;2022-11-15T14:21:08;99808.16;;;7.06;100.00
64683;BME280;51107;47.652;19.016;2022-11-15T14:23:37;99824.88;;;7.02;100.00
64683;BME280;51107;47.652;19.016;2022-11-15T14:26:05;99820.56;;;7.03;100.00
64683;BME280;51107;47.652;19.016;2022-11-15T14:28:39;99818.78;;;7.03;100.00
64683;BME280;51107;47.652;19.016;2022-11-15T14:31:11;99814.78;;;6.99;100.00
64683;BME280;51107;47.652;19.016;2022-11-15T14:33:41;99807.28;;;6.96;100.00
64683;BME280;51107;47.652;19.016;2022-11-15T14:36:15;99798.66;;;6.95;100.00
64683;BME280;51107;47.652;19.016;2022-11-15T14:38:43;99795.97;;;6.97;100.00
64683;BME280;51107;47.652;19.016;2022-11-15T14:41:23;99791.03;;;6.94;100.00
64683;BME280;51107;47.652;19.016;2022-11-15T14:43:52;99792.09;;;6.91;100.00
64683;BME280;51107;47.652;19.016;2022-11-15T14:46:21;99800.00;;;6.90;100.00
64683;BME280;51107;47.652;19.016;2022-11-15T14:48:50;99797.94;;;6.84;100.00
64683;BME280;51107;47.652;19.016;2022-11-15T14:51:19;99791.50;;;6.78;100.00
64683;BME280;51107;47.652;19.016;2022-11-15T14:53:48;99785.47;;;6.77;100.00
64683;BME280;51107;47.652;19.016;2022-11-15T14:56:16;99783.59;;;6.79;100.00
64683;BME280;51107;47.652;19.016;2022-11-15T14:58:44;99780.06;;;6.80;100.00
64683;BME280;51107;47.652;19.016;2022-11-15T15:01:25;99778.41;;;6.79;100.00
64683;BME280;51107;47.652;19.016;2022-11-15T15:03:54;99782.00;;;6.88;100.00
64683;BME280;51107;47.652;19.016;2022-11-15T15:06:27;99772.72;;;6.86;100.00
64683;BME280;51107;47.652;19.016;2022-11-15T15:08:56;99782.84;;;6.89;100.00
64683;BME280;51107;47.652;19.016;2022-11-15T15:11:27;99775.06;;;6.89;100.00
64683;BME280;51107;47.652;19.016;2022-11-15T15:13:57;99776.69;;;6.90;100.00
64683;BME280;51107;47.652;19.016;2022-11-15T15:16:29;99767.16;;;6.90;100.00
64683;BME280;51107;47.652;19.016;2022-11-15T15:19:00;99759.28;;;6.92;100.00
64683;BME280;51107;47.652;19.016;2022-11-15T15:21:28;99757.56;;;6.81;100.00
64683;BME280;51107;47.652;19.016;2022-11-15T15:24:04;99766.72;;;6.85;100.00
64683;BME280;51107;47.652;19.016;2022-11-15T15:26:34;99763.19;;;6.86;100.00
64683;BME280;51107;47.652;19.016;2022-11-15T15:29:06;99754.72;;;6.84;100.00
64683;BME280;51107;47.652;19.016;2022-11-15T15:31:36;99766.00;;;6.83;100.00
64683;BME280;51107;47.652;19.016;2022-11-15T15:34:05;99753.91;;;6.84;100.00
64683;BME280;51107;47.652;19.016;2022-11-15T15:36:39;99761.69;;;6.84;100.00
64683;BME280;51107;47.652;19.016;2022-11-15T15:39:10;99766.91;;;6.72;100.00
64683;BME280;51107;47.652;19.016;2022-11-15T15:41:40;99762.88;;;6.79;100.00
64683;BME280;51107;47.652;19.016;2022-11-15T15:44:08;99766.28;;;6.80;100.00
64683;BME280;51107;47.652;19.016;2022-11-15T15:46:37;99755.91;;;6.80;100.00
64683;BME280;51107;47.652;19.016;2022-11-15T15:49:08;99754.66;;;6.74;100.00
64683;BME280;51107;47.652;19.016;2022-11-15T15:51:37;99753.97;;;6.72;100.00
64683;BME280;51107;47.652;19.016;2022-11-15T15:54:05;99750.81;;;6.69;100.00
64683;BME280;51107;47.652;19.016;2022-11-15T15:56:35;99748.66;;;6.74;100.00
64683;BME280;51107;47.652;19.016;2022-11-15T15:59:04;99751.25;;;6.74;100.00
64683;BME280;51107;47.652;19.016;2022-11-15T16:01:32;99741.59;;;6.76;100.00
64683;BME280;51107;47.652;19.016;2022-11-15T16:04:01;99746.88;;;6.74;100.00
64683;BME280;51107;47.652;19.016;2022-11-15T16:06:39;99755.28;;;6.67;100.00
64683;BME280;51107;47.652;19.016;2022-11-15T16:09:16;99748.22;;;6.69;100.00
64683;BME280;51107;47.652;19.016;2022-11-15T16:11:46;99758.56;;;6.69;100.00
64683;BME280;51107;47.652;19.016;2022-11-15T16:14:15;99754.53;;;6.55;100.00
64683;BME280;51107;47.652;19.016;2022-11-15T16:16:43;99752.41;;;6.60;100.00
64683;BME280;51107;47.652;19.016;2022-11-15T16:19:11;99746.97;;;6.63;100.00
64683;BME280;51107;47.652;19.016;2022-11-15T16:21:40;99741.78;;;6.63;100.00